Details From YMAV - Avalon
To YSDU - Dubbo
Flight Number -
Tags generated
Created
Modified
Stats Distance 415 nm / 768 km
Max Altitude 35,000 ft / 10,668 m
Waypoints 5
Social Downloads 0
Likes 0
Share VATSIM

Download

Looking for another format? Having issues loading an existing format? Contact us
Advertisement - Login to hide

Notes

Basic altitude profile: - Ascent Rate: 2500ft/min - Ascent Speed: 250kts - Cruise Altitude: 35000ft - Cruise Speed: 420kts - Descent Rate: 1500ft/min - Descent Speed: 250kts Options: - Use NATs: yes - Use PACOTS: yes - Use low airways: yes - Use high airways: yes

Route

YMAV CANTY Q94 PKS YSDU

ID Type Via Altitude Latitude Longitude Leg Dist Tot Dist Heading (true) Name
O YMAV APT - 0 ft / 0 m -38.04084˚ 144.46713˚ - 0 nm - Avalon
CANTY FIX - 25,600 ft / 7,803 m -36.80667˚ 144.65167˚ 74 nm 74 nm 7° / 7° -
POLSO FIX Q94 (AWY-HI) 35,000 ft / 10,668 m -35.77944˚ 145.69750˚ 79 nm 154 nm 40° / 39° -
PKS VOR Q94 (AWY-HI) 17,000 ft / 5,182 m -33.13111˚ 148.23722˚ 202 nm 357 nm 39° / 38° PARKES VOR-DME
O YSDU APT - 0 ft / 0 m -32.21749˚ 148.57727˚ 57 nm 414 nm 17° / 17° Dubbo

Altitude Profile

Advertisement - Login to hide

Weather


0- 5 10 15 20 25 30 35+ Temperature / ° C

Clouds and Precipitation
Forecast for 2017-12-14 18:00 UTC. Updated 13 minutes ago

Ground ~20,000 ft ~40,000 ft Winds

YMAV

Details ICAO YMAV (AVV)
Name Avalon
Region Australia
Timezone Australia/Melbourne (UTC+11.0)
Stats Elevation 35 ft / 11 m (AMSL)
Location -38.040844° 144.467132°
Runways 1
Magnetic Variation 11.473° E

METAR

YMAV 141700Z AUTO 33006KT 9999 // NCD 11/10 Q1012 RF00.0/000.0

Decode

TAF

TAF YMAV 141103Z 1412/1512 19008KT 9999 FEW040 FM141400 26005KT 9999 FEW020 FM141800 VRB05KT 9999 BKN025 BECMG 1421/1423 11012KT CAVOK FM150500 17017G28KT CAVOK BECMG 1509/1511 20006KT CAVOK

Decode

Departure Runways

ID Width Length Bearing (true) Bearing (mag) Surface Threshold Offset Overrun Length
18 148 ft / 45 m 10,010 ft / 3,051 m 187.50° 176.03° Asphalt 0 ft / 0 m 797 ft / 243 m
36 148 ft / 45 m 10,010 ft / 3,051 m 7.50° 356.03° Asphalt 0 ft / 0 m 1,010 ft / 308 m

YSDU

Details ICAO YSDU (DBO)
Name Dubbo
Region Australia
Timezone Australia/Sydney (UTC+11.0)
Stats Elevation 935 ft / 285 m (AMSL)
Location -32.217486° 148.577269°
Runways 2
Magnetic Variation 11.083° E

METAR

YSDU 141700Z AUTO 22007KT 9999 // NCD 22/13 Q1009

Decode

TAF

TAF YSDU 141106Z 1412/1506 17010KT CAVOK FM142000 03010KT CAVOK FM150000 30010KT CAVOK FM150500 25010KT CAVOK

Decode

Destination Runways

ID Width Length Bearing (true) Bearing (mag) Surface Threshold Offset Overrun Length
05 148 ft / 45 m 5,605 ft / 1,708 m 53.60° 42.52° Asphalt 0 ft / 0 m 0 ft / 0 m
11 59 ft / 18 m 3,498 ft / 1,066 m 119.18° 108.10° Asphalt 0 ft / 0 m 0 ft / 0 m
23 148 ft / 45 m 5,605 ft / 1,708 m 233.60° 222.52° Asphalt 0 ft / 0 m 0 ft / 0 m
29 59 ft / 18 m 3,498 ft / 1,066 m 299.17° 288.09° Asphalt 0 ft / 0 m 0 ft / 0 m